sensor_id;sensor_type;location;lat;lon;timestamp;P1;durP1;ratioP1;P2;durP2;ratioP2
6249;SDS011;3158;52.148;11.568;2023-11-19T00:02:15;3.85;;;2.60;;
6249;SDS011;3158;52.148;11.568;2023-11-19T00:07:16;6.22;;;3.35;;
6249;SDS011;3158;52.148;11.568;2023-11-19T00:12:17;4.50;;;3.17;;
6249;SDS011;3158;52.148;11.568;2023-11-19T00:17:18;5.55;;;3.67;;
6249;SDS011;3158;52.148;11.568;2023-11-19T00:22:19;3.60;;;3.33;;
6249;SDS011;3158;52.148;11.568;2023-11-19T00:27:22;3.08;;;2.85;;
6249;SDS011;3158;52.148;11.568;2023-11-19T00:32:23;4.25;;;2.67;;
6249;SDS011;3158;52.148;11.568;2023-11-19T00:37:24;2.40;;;2.30;;
6249;SDS011;3158;52.148;11.568;2023-11-19T00:42:25;3.00;;;2.78;;
6249;SDS011;3158;52.148;11.568;2023-11-19T00:47:26;3.28;;;2.00;;
6249;SDS011;3158;52.148;11.568;2023-11-19T00:52:28;2.15;;;1.80;;
6249;SDS011;3158;52.148;11.568;2023-11-19T00:57:29;1.48;;;1.48;;
6249;SDS011;3158;52.148;11.568;2023-11-19T01:02:30;1.60;;;1.50;;
6249;SDS011;3158;52.148;11.568;2023-11-19T01:07:31;2.25;;;2.00;;
6249;SDS011;3158;52.148;11.568;2023-11-19T01:12:32;1.23;;;1.23;;
6249;SDS011;3158;52.148;11.568;2023-11-19T01:17:33;1.52;;;1.42;;
6249;SDS011;3158;52.148;11.568;2023-11-19T01:22:35;1.02;;;1.02;;
6249;SDS011;3158;52.148;11.568;2023-11-19T01:27:36;1.10;;;1.10;;
6249;SDS011;3158;52.148;11.568;2023-11-19T01:32:37;1.00;;;1.00;;
6249;SDS011;3158;52.148;11.568;2023-11-19T01:37:38;2.78;;;1.00;;
6249;SDS011;3158;52.148;11.568;2023-11-19T01:42:39;0.90;;;0.90;;
6249;SDS011;3158;52.148;11.568;2023-11-19T01:47:40;0.90;;;0.90;;
6249;SDS011;3158;52.148;11.568;2023-11-19T01:52:42;1.00;;;1.00;;
6249;SDS011;3158;52.148;11.568;2023-11-19T01:57:43;0.70;;;0.70;;
6249;SDS011;3158;52.148;11.568;2023-11-19T02:02:44;1.05;;;1.05;;
6249;SDS011;3158;52.148;11.568;2023-11-19T02:07:46;0.73;;;0.73;;
6249;SDS011;3158;52.148;11.568;2023-11-19T02:12:47;0.63;;;0.63;;
6249;SDS011;3158;52.148;11.568;2023-11-19T02:17:48;0.70;;;0.70;;
6249;SDS011;3158;52.148;11.568;2023-11-19T02:22:49;0.60;;;0.60;;
6249;SDS011;3158;52.148;11.568;2023-11-19T02:27:58;0.52;;;0.52;;
6249;SDS011;3158;52.148;11.568;2023-11-19T02:32:59;0.63;;;0.63;;
6249;SDS011;3158;52.148;11.568;2023-11-19T02:38:05;0.60;;;0.60;;
6249;SDS011;3158;52.148;11.568;2023-11-19T02:43:07;0.95;;;0.57;;
6249;SDS011;3158;52.148;11.568;2023-11-19T02:48:09;0.60;;;0.60;;
6249;SDS011;3158;52.148;11.568;2023-11-19T02:53:10;0.47;;;0.47;;
6249;SDS011;3158;52.148;11.568;2023-11-19T02:58:13;0.73;;;0.73;;
6249;SDS011;3158;52.148;11.568;2023-11-19T03:03:20;0.70;;;0.70;;
6249;SDS011;3158;52.148;11.568;2023-11-19T03:08:22;0.57;;;0.50;;
6249;SDS011;3158;52.148;11.568;2023-11-19T03:13:24;1.85;;;0.70;;
6249;SDS011;3158;52.148;11.568;2023-11-19T03:18:25;3.78;;;0.80;;
6249;SDS011;3158;52.148;11.568;2023-11-19T03:23:27;2.08;;;0.70;;
6249;SDS011;3158;52.148;11.568;2023-11-19T03:28:28;1.08;;;1.08;;
6249;SDS011;3158;52.148;11.568;2023-11-19T03:33:29;1.27;;;0.75;;
6249;SDS011;3158;52.148;11.568;2023-11-19T03:38:30;0.80;;;0.80;;
6249;SDS011;3158;52.148;11.568;2023-11-19T03:43:32;0.98;;;0.80;;
6249;SDS011;3158;52.148;11.568;2023-11-19T03:48:33;0.75;;;0.75;;
6249;SDS011;3158;52.148;11.568;2023-11-19T03:53:34;1.00;;;1.00;;
6249;SDS011;3158;52.148;11.568;2023-11-19T03:58:35;0.60;;;0.60;;
6249;SDS011;3158;52.148;11.568;2023-11-19T04:03:38;0.90;;;0.90;;
6249;SDS011;3158;52.148;11.568;2023-11-19T04:08:39;0.80;;;0.80;;
6249;SDS011;3158;52.148;11.568;2023-11-19T04:13:40;0.60;;;0.60;;
6249;SDS011;3158;52.148;11.568;2023-11-19T04:18:41;0.95;;;0.75;;
6249;SDS011;3158;52.148;11.568;2023-11-19T04:23:42;0.60;;;0.60;;
6249;SDS011;3158;52.148;11.568;2023-11-19T04:28:43;0.50;;;0.50;;
6249;SDS011;3158;52.148;11.568;2023-11-19T04:33:45;0.73;;;0.63;;
6249;SDS011;3158;52.148;11.568;2023-11-19T04:38:47;0.50;;;0.50;;
6249;SDS011;3158;52.148;11.568;2023-11-19T04:43:48;1.95;;;0.77;;
6249;SDS011;3158;52.148;11.568;2023-11-19T04:48:49;1.95;;;0.52;;
6249;SDS011;3158;52.148;11.568;2023-11-19T04:53:51;0.50;;;0.50;;
6249;SDS011;3158;52.148;11.568;2023-11-19T04:58:52;0.63;;;0.50;;
6249;SDS011;3158;52.148;11.568;2023-11-19T05:03:53;0.40;;;0.40;;
6249;SDS011;3158;52.148;11.568;2023-11-19T05:08:54;0.30;;;0.30;;
6249;SDS011;3158;52.148;11.568;2023-11-19T05:13:55;0.22;;;0.22;;
6249;SDS011;3158;52.148;11.568;2023-11-19T05:18:56;0.10;;;0.10;;
6249;SDS011;3158;52.148;11.568;2023-11-19T05:23:57;0.10;;;0.10;;
6249;SDS011;3158;52.148;11.568;2023-11-19T05:28:58;0.10;;;0.10;;
6249;SDS011;3158;52.148;11.568;2023-11-19T05:33:59;0.00;;;0.00;;
6249;SDS011;3158;52.148;11.568;2023-11-19T05:39:00;0.00;;;0.00;;
6249;SDS011;3158;52.148;11.568;2023-11-19T05:44:01;0.10;;;0.10;;
6249;SDS011;3158;52.148;11.568;2023-11-19T05:49:02;0.10;;;0.10;;
6249;SDS011;3158;52.148;11.568;2023-11-19T05:54:08;0.10;;;0.10;;
6249;SDS011;3158;52.148;11.568;2023-11-19T05:59:09;0.10;;;0.10;;
6249;SDS011;3158;52.148;11.568;2023-11-19T06:04:15;0.10;;;0.10;;
6249;SDS011;3158;52.148;11.568;2023-11-19T06:09:16;0.22;;;0.22;;
6249;SDS011;3158;52.148;11.568;2023-11-19T06:14:18;0.20;;;0.20;;
6249;SDS011;3158;52.148;11.568;2023-11-19T06:19:19;0.20;;;0.20;;
6249;SDS011;3158;52.148;11.568;2023-11-19T06:24:20;0.20;;;0.20;;
6249;SDS011;3158;52.148;11.568;2023-11-19T06:29:22;0.47;;;0.17;;
6249;SDS011;3158;52.148;11.568;2023-11-19T06:34:23;0.10;;;0.10;;
6249;SDS011;3158;52.148;11.568;2023-11-19T06:39:24;0.20;;;0.20;;
6249;SDS011;3158;52.148;11.568;2023-11-19T06:44:25;0.10;;;0.10;;
6249;SDS011;3158;52.148;11.568;2023-11-19T06:49:26;0.10;;;0.10;;
6249;SDS011;3158;52.148;11.568;2023-11-19T06:54:27;0.10;;;0.10;;
6249;SDS011;3158;52.148;11.568;2023-11-19T06:59:28;0.10;;;0.10;;
6249;SDS011;3158;52.148;11.568;2023-11-19T07:04:30;0.73;;;0.20;;
6249;SDS011;3158;52.148;11.568;2023-11-19T07:09:31;0.20;;;0.20;;
6249;SDS011;3158;52.148;11.568;2023-11-19T07:14:33;0.20;;;0.20;;
6249;SDS011;3158;52.148;11.568;2023-11-19T07:19:34;0.90;;;0.30;;
6249;SDS011;3158;52.148;11.568;2023-11-19T07:24:36;0.40;;;0.40;;
6249;SDS011;3158;52.148;11.568;2023-11-19T07:29:39;0.47;;;0.35;;
6249;SDS011;3158;52.148;11.568;2023-11-19T07:34:40;0.40;;;0.40;;
6249;SDS011;3158;52.148;11.568;2023-11-19T07:39:42;2.13;;;0.50;;
6249;SDS011;3158;52.148;11.568;2023-11-19T07:44:43;2.17;;;0.88;;
6249;SDS011;3158;52.148;11.568;2023-11-19T07:49:44;3.30;;;0.50;;
6249;SDS011;3158;52.148;11.568;2023-11-19T07:54:45;1.65;;;0.77;;
6249;SDS011;3158;52.148;11.568;2023-11-19T07:59:46;4.72;;;0.60;;
6249;SDS011;3158;52.148;11.568;2023-11-19T08:04:47;4.43;;;0.70;;
6249;SDS011;3158;52.148;11.568;2023-11-19T08:09:51;2.15;;;0.60;;
6249;SDS011;3158;52.148;11.568;2023-11-19T08:14:52;1.10;;;0.68;;
6249;SDS011;3158;52.148;11.568;2023-11-19T08:19:53;2.05;;;0.50;;
6249;SDS011;3158;52.148;11.568;2023-11-19T08:24:54;3.35;;;0.73;;
6249;SDS011;3158;52.148;11.568;2023-11-19T08:29:55;0.60;;;0.60;;
6249;SDS011;3158;52.148;11.568;2023-11-19T08:34:57;0.85;;;0.60;;
6249;SDS011;3158;52.148;11.568;2023-11-19T08:39:58;0.75;;;0.60;;
6249;SDS011;3158;52.148;11.568;2023-11-19T08:44:59;1.52;;;0.75;;
6249;SDS011;3158;52.148;11.568;2023-11-19T08:50:00;3.63;;;0.70;;
6249;SDS011;3158;52.148;11.568;2023-11-19T08:55:01;1.75;;;0.70;;
6249;SDS011;3158;52.148;11.568;2023-11-19T09:00:03;2.10;;;0.90;;
6249;SDS011;3158;52.148;11.568;2023-11-19T09:05:07;2.88;;;0.80;;
6249;SDS011;3158;52.148;11.568;2023-11-19T09:10:08;2.10;;;0.90;;
6249;SDS011;3158;52.148;11.568;2023-11-19T09:15:11;2.25;;;1.08;;
6249;SDS011;3158;52.148;11.568;2023-11-19T09:20:13;3.67;;;1.20;;
6249;SDS011;3158;52.148;11.568;2023-11-19T09:25:15;7.80;;;1.02;;
6249;SDS011;3158;52.148;11.568;2023-11-19T09:30:17;3.60;;;1.38;;
6249;SDS011;3158;52.148;11.568;2023-11-19T09:35:18;3.33;;;1.38;;
6249;SDS011;3158;52.148;11.568;2023-11-19T09:40:19;8.23;;;1.55;;
6249;SDS011;3158;52.148;11.568;2023-11-19T09:45:21;3.67;;;1.02;;
6249;SDS011;3158;52.148;11.568;2023-11-19T09:50:22;2.50;;;1.45;;
6249;SDS011;3158;52.148;11.568;2023-11-19T09:55:23;4.65;;;0.95;;
6249;SDS011;3158;52.148;11.568;2023-11-19T10:00:24;5.75;;;0.73;;
6249;SDS011;3158;52.148;11.568;2023-11-19T10:05:25;3.78;;;1.40;;
6249;SDS011;3158;52.148;11.568;2023-11-19T10:10:26;6.63;;;1.33;;
6249;SDS011;3158;52.148;11.568;2023-11-19T10:15:27;7.97;;;1.60;;
6249;SDS011;3158;52.148;11.568;2023-11-19T10:20:34;7.57;;;1.30;;
6249;SDS011;3158;52.148;11.568;2023-11-19T10:25:35;10.23;;;1.20;;
6249;SDS011;3158;52.148;11.568;2023-11-19T10:30:36;8.85;;;1.92;;
6249;SDS011;3158;52.148;11.568;2023-11-19T10:35:51;7.15;;;1.20;;
6249;SDS011;3158;52.148;11.568;2023-11-19T10:40:53;8.18;;;1.42;;
6249;SDS011;3158;52.148;11.568;2023-11-19T10:45:54;11.75;;;1.40;;
6249;SDS011;3158;52.148;11.568;2023-11-19T10:51:09;6.30;;;1.38;;
6249;SDS011;3158;52.148;11.568;2023-11-19T10:56:11;13.95;;;2.83;;
6249;SDS011;3158;52.148;11.568;2023-11-19T11:01:16;11.93;;;1.67;;
6249;SDS011;3158;52.148;11.568;2023-11-19T11:06:20;5.05;;;1.25;;
6249;SDS011;3158;52.148;11.568;2023-11-19T11:11:22;11.57;;;1.45;;
6249;SDS011;3158;52.148;11.568;2023-11-19T11:16:23;5.53;;;0.90;;
6249;SDS011;3158;52.148;11.568;2023-11-19T11:21:25;5.15;;;1.73;;
6249;SDS011;3158;52.148;11.568;2023-11-19T11:42:30;5.85;;;1.33;;
6249;SDS011;3158;52.148;11.568;2023-11-19T11:57:58;6.07;;;1.80;;
6249;SDS011;3158;52.148;11.568;2023-11-19T12:03:00;6.25;;;1.15;;
6249;SDS011;3158;52.148;11.568;2023-11-19T12:08:02;7.72;;;1.10;;
6249;SDS011;3158;52.148;11.568;2023-11-19T12:13:06;6.43;;;0.77;;
6249;SDS011;3158;52.148;11.568;2023-11-19T12:18:08;3.13;;;0.93;;
6249;SDS011;3158;52.148;11.568;2023-11-19T12:23:09;4.45;;;1.38;;
6249;SDS011;3158;52.148;11.568;2023-11-19T12:28:14;7.80;;;1.40;;
6249;SDS011;3158;52.148;11.568;2023-11-19T12:33:17;4.68;;;1.02;;
6249;SDS011;3158;52.148;11.568;2023-11-19T12:38:22;4.03;;;1.17;;
6249;SDS011;3158;52.148;11.568;2023-11-19T12:43:23;5.88;;;1.33;;
6249;SDS011;3158;52.148;11.568;2023-11-19T12:48:24;8.43;;;1.45;;
6249;SDS011;3158;52.148;11.568;2023-11-19T12:53:26;3.70;;;1.08;;
6249;SDS011;3158;52.148;11.568;2023-11-19T13:03:30;8.10;;;1.23;;
6249;SDS011;3158;52.148;11.568;2023-11-19T13:08:47;7.72;;;1.45;;
6249;SDS011;3158;52.148;11.568;2023-11-19T13:13:56;11.80;;;1.70;;
6249;SDS011;3158;52.148;11.568;2023-11-19T13:18:58;7.15;;;1.23;;
6249;SDS011;3158;52.148;11.568;2023-11-19T13:24:00;9.65;;;1.25;;
6249;SDS011;3158;52.148;11.568;2023-11-19T13:29:01;8.15;;;0.90;;
6249;SDS011;3158;52.148;11.568;2023-11-19T13:34:02;9.65;;;1.63;;
6249;SDS011;3158;52.148;11.568;2023-11-19T13:39:03;10.60;;;1.85;;
6249;SDS011;3158;52.148;11.568;2023-11-19T13:44:04;10.75;;;1.95;;
6249;SDS011;3158;52.148;11.568;2023-11-19T13:49:05;3.58;;;1.48;;
6249;SDS011;3158;52.148;11.568;2023-11-19T13:54:06;7.90;;;1.70;;
6249;SDS011;3158;52.148;11.568;2023-11-19T13:59:08;15.90;;;2.10;;
6249;SDS011;3158;52.148;11.568;2023-11-19T14:04:09;7.70;;;1.35;;
6249;SDS011;3158;52.148;11.568;2023-11-19T14:09:10;10.07;;;1.52;;
6249;SDS011;3158;52.148;11.568;2023-11-19T14:14:11;6.07;;;1.92;;
6249;SDS011;3158;52.148;11.568;2023-11-19T14:19:12;4.95;;;1.38;;
6249;SDS011;3158;52.148;11.568;2023-11-19T14:24:13;6.97;;;1.70;;
6249;SDS011;3158;52.148;11.568;2023-11-19T14:29:14;12.35;;;1.85;;
6249;SDS011;3158;52.148;11.568;2023-11-19T14:34:15;11.07;;;2.03;;
6249;SDS011;3158;52.148;11.568;2023-11-19T14:39:16;5.95;;;2.38;;
6249;SDS011;3158;52.148;11.568;2023-11-19T14:44:17;11.20;;;2.72;;
6249;SDS011;3158;52.148;11.568;2023-11-19T14:49:19;8.68;;;3.17;;
6249;SDS011;3158;52.148;11.568;2023-11-19T14:54:20;11.82;;;2.28;;
6249;SDS011;3158;52.148;11.568;2023-11-19T14:59:21;7.82;;;2.10;;
6249;SDS011;3158;52.148;11.568;2023-11-19T15:04:22;10.00;;;2.08;;
6249;SDS011;3158;52.148;11.568;2023-11-19T15:09:24;5.50;;;1.73;;
6249;SDS011;3158;52.148;11.568;2023-11-19T15:14:25;13.38;;;1.70;;
6249;SDS011;3158;52.148;11.568;2023-11-19T15:19:26;9.68;;;1.90;;
6249;SDS011;3158;52.148;11.568;2023-11-19T15:24:27;7.35;;;1.98;;
6249;SDS011;3158;52.148;11.568;2023-11-19T15:29:28;4.68;;;1.67;;
6249;SDS011;3158;52.148;11.568;2023-11-19T15:34:30;7.43;;;1.67;;
6249;SDS011;3158;52.148;11.568;2023-11-19T15:39:31;6.25;;;1.50;;
6249;SDS011;3158;52.148;11.568;2023-11-19T15:44:33;7.85;;;2.20;;
6249;SDS011;3158;52.148;11.568;2023-11-19T15:49:34;12.88;;;1.45;;
6249;SDS011;3158;52.148;11.568;2023-11-19T15:54:36;8.45;;;1.38;;
6249;SDS011;3158;52.148;11.568;2023-11-19T15:59:37;5.40;;;1.42;;
6249;SDS011;3158;52.148;11.568;2023-11-19T16:04:38;10.88;;;1.67;;
6249;SDS011;3158;52.148;11.568;2023-11-19T16:09:39;6.00;;;1.73;;
6249;SDS011;3158;52.148;11.568;2023-11-19T16:14:41;5.03;;;1.95;;
6249;SDS011;3158;52.148;11.568;2023-11-19T16:19:42;4.18;;;1.10;;
6249;SDS011;3158;52.148;11.568;2023-11-19T16:24:44;5.68;;;1.23;;
6249;SDS011;3158;52.148;11.568;2023-11-19T16:29:46;7.57;;;1.55;;
6249;SDS011;3158;52.148;11.568;2023-11-19T16:34:47;3.67;;;1.25;;
6249;SDS011;3158;52.148;11.568;2023-11-19T16:39:48;6.30;;;1.42;;
6249;SDS011;3158;52.148;11.568;2023-11-19T16:44:49;4.63;;;0.93;;
6249;SDS011;3158;52.148;11.568;2023-11-19T16:49:51;5.85;;;1.15;;
6249;SDS011;3158;52.148;11.568;2023-11-19T16:54:55;6.50;;;1.23;;
6249;SDS011;3158;52.148;11.568;2023-11-19T16:59:56;6.75;;;1.15;;
6249;SDS011;3158;52.148;11.568;2023-11-19T17:04:57;6.65;;;1.70;;
6249;SDS011;3158;52.148;11.568;2023-11-19T17:09:58;8.10;;;1.30;;
6249;SDS011;3158;52.148;11.568;2023-11-19T17:14:59;7.25;;;1.55;;
6249;SDS011;3158;52.148;11.568;2023-11-19T17:20:07;6.85;;;1.40;;
6249;SDS011;3158;52.148;11.568;2023-11-19T17:25:08;6.85;;;1.75;;
6249;SDS011;3158;52.148;11.568;2023-11-19T17:30:10;5.15;;;2.08;;
6249;SDS011;3158;52.148;11.568;2023-11-19T17:35:11;9.15;;;1.55;;
6249;SDS011;3158;52.148;11.568;2023-11-19T17:40:12;4.10;;;1.67;;
6249;SDS011;3158;52.148;11.568;2023-11-19T17:45:16;7.72;;;2.08;;
6249;SDS011;3158;52.148;11.568;2023-11-19T17:50:18;6.80;;;2.03;;
6249;SDS011;3158;52.148;11.568;2023-11-19T17:55:20;10.00;;;1.35;;
6249;SDS011;3158;52.148;11.568;2023-11-19T18:00:21;11.63;;;1.75;;
6249;SDS011;3158;52.148;11.568;2023-11-19T18:05:22;12.82;;;2.33;;
6249;SDS011;3158;52.148;11.568;2023-11-19T18:10:23;6.72;;;1.63;;
6249;SDS011;3158;52.148;11.568;2023-11-19T18:15:25;12.40;;;3.67;;
6249;SDS011;3158;52.148;11.568;2023-11-19T18:20:26;8.52;;;2.42;;
6249;SDS011;3158;52.148;11.568;2023-11-19T18:25:27;8.63;;;1.95;;
6249;SDS011;3158;52.148;11.568;2023-11-19T18:30:28;7.93;;;3.28;;
6249;SDS011;3158;52.148;11.568;2023-11-19T18:35:29;8.25;;;3.00;;
6249;SDS011;3158;52.148;11.568;2023-11-19T18:40:31;11.73;;;3.58;;
6249;SDS011;3158;52.148;11.568;2023-11-19T18:45:33;10.82;;;2.13;;
6249;SDS011;3158;52.148;11.568;2023-11-19T18:50:34;6.00;;;3.70;;
6249;SDS011;3158;52.148;11.568;2023-11-19T18:55:35;7.30;;;3.35;;
6249;SDS011;3158;52.148;11.568;2023-11-19T19:00:37;5.68;;;1.65;;
6249;SDS011;3158;52.148;11.568;2023-11-19T19:05:38;8.20;;;1.75;;
6249;SDS011;3158;52.148;11.568;2023-11-19T19:10:39;10.07;;;4.40;;
6249;SDS011;3158;52.148;11.568;2023-11-19T19:15:40;12.80;;;7.18;;
6249;SDS011;3158;52.148;11.568;2023-11-19T19:20:41;14.00;;;2.33;;
6249;SDS011;3158;52.148;11.568;2023-11-19T19:25:43;7.90;;;2.30;;
6249;SDS011;3158;52.148;11.568;2023-11-19T19:30:44;10.13;;;3.58;;
6249;SDS011;3158;52.148;11.568;2023-11-19T19:35:46;9.77;;;3.47;;
6249;SDS011;3158;52.148;11.568;2023-11-19T19:40:47;16.50;;;4.43;;
6249;SDS011;3158;52.148;11.568;2023-11-19T19:45:48;5.45;;;2.40;;
6249;SDS011;3158;52.148;11.568;2023-11-19T19:50:49;5.97;;;1.60;;
6249;SDS011;3158;52.148;11.568;2023-11-19T19:55:50;8.85;;;2.40;;
6249;SDS011;3158;52.148;11.568;2023-11-19T20:00:51;4.80;;;1.90;;
6249;SDS011;3158;52.148;11.568;2023-11-19T20:05:55;15.07;;;1.85;;
6249;SDS011;3158;52.148;11.568;2023-11-19T20:10:56;12.40;;;2.05;;
6249;SDS011;3158;52.148;11.568;2023-11-19T20:15:58;5.85;;;2.08;;
6249;SDS011;3158;52.148;11.568;2023-11-19T20:20:59;7.97;;;1.85;;
6249;SDS011;3158;52.148;11.568;2023-11-19T20:26:03;5.05;;;1.45;;
6249;SDS011;3158;52.148;11.568;2023-11-19T20:31:06;4.60;;;0.93;;
6249;SDS011;3158;52.148;11.568;2023-11-19T20:36:07;8.35;;;1.42;;
6249;SDS011;3158;52.148;11.568;2023-11-19T20:41:08;7.90;;;1.20;;
6249;SDS011;3158;52.148;11.568;2023-11-19T20:46:09;3.67;;;1.17;;
6249;SDS011;3158;52.148;11.568;2023-11-19T20:51:10;7.28;;;0.90;;
6249;SDS011;3158;52.148;11.568;2023-11-19T20:56:12;5.93;;;1.60;;
6249;SDS011;3158;52.148;11.568;2023-11-19T21:01:13;5.95;;;0.88;;
6249;SDS011;3158;52.148;11.568;2023-11-19T21:06:15;4.65;;;0.95;;
6249;SDS011;3158;52.148;11.568;2023-11-19T21:11:17;6.90;;;1.42;;
6249;SDS011;3158;52.148;11.568;2023-11-19T21:16:18;2.17;;;0.70;;
6249;SDS011;3158;52.148;11.568;2023-11-19T21:21:19;6.88;;;1.00;;
6249;SDS011;3158;52.148;11.568;2023-11-19T21:26:21;4.78;;;0.82;;
6249;SDS011;3158;52.148;11.568;2023-11-19T21:31:22;2.80;;;0.75;;
6249;SDS011;3158;52.148;11.568;2023-11-19T21:36:23;3.45;;;0.80;;
6249;SDS011;3158;52.148;11.568;2023-11-19T21:41:24;1.17;;;0.80;;
6249;SDS011;3158;52.148;11.568;2023-11-19T21:46:25;2.50;;;0.60;;
6249;SDS011;3158;52.148;11.568;2023-11-19T21:51:26;4.10;;;0.73;;
6249;SDS011;3158;52.148;11.568;2023-11-19T21:56:28;3.00;;;1.60;;
6249;SDS011;3158;52.148;11.568;2023-11-19T22:01:29;4.82;;;0.82;;
6249;SDS011;3158;52.148;11.568;2023-11-19T22:06:30;1.55;;;0.52;;
6249;SDS011;3158;52.148;11.568;2023-11-19T22:11:31;3.00;;;0.50;;
6249;SDS011;3158;52.148;11.568;2023-11-19T22:16:32;2.10;;;0.68;;
6249;SDS011;3158;52.148;11.568;2023-11-19T22:21:33;2.97;;;0.60;;
6249;SDS011;3158;52.148;11.568;2023-11-19T22:26:35;4.00;;;0.60;;
6249;SDS011;3158;52.148;11.568;2023-11-19T22:31:37;0.68;;;0.50;;
6249;SDS011;3158;52.148;11.568;2023-11-19T22:36:38;5.32;;;0.98;;
6249;SDS011;3158;52.148;11.568;2023-11-19T22:41:39;1.65;;;0.50;;
6249;SDS011;3158;52.148;11.568;2023-11-19T22:46:40;2.53;;;0.60;;
6249;SDS011;3158;52.148;11.568;2023-11-19T22:51:41;1.95;;;0.90;;
6249;SDS011;3158;52.148;11.568;2023-11-19T22:56:42;2.40;;;1.20;;
6249;SDS011;3158;52.148;11.568;2023-11-19T23:01:44;1.90;;;0.93;;
6249;SDS011;3158;52.148;11.568;2023-11-19T23:06:45;1.13;;;0.60;;
6249;SDS011;3158;52.148;11.568;2023-11-19T23:11:46;2.35;;;0.50;;
6249;SDS011;3158;52.148;11.568;2023-11-19T23:16:47;0.30;;;0.30;;
6249;SDS011;3158;52.148;11.568;2023-11-19T23:21:48;0.90;;;0.32;;
6249;SDS011;3158;52.148;11.568;2023-11-19T23:26:49;4.13;;;0.40;;
6249;SDS011;3158;52.148;11.568;2023-11-19T23:31:51;1.25;;;0.30;;
6249;SDS011;3158;52.148;11.568;2023-11-19T23:36:52;0.50;;;0.50;;
6249;SDS011;3158;52.148;11.568;2023-11-19T23:41:53;0.30;;;0.30;;
6249;SDS011;3158;52.148;11.568;2023-11-19T23:46:54;1.85;;;0.30;;
6249;SDS011;3158;52.148;11.568;2023-11-19T23:51:55;0.15;;;0.15;;
6249;SDS011;3158;52.148;11.568;2023-11-19T23:56:59;0.80;;;0.20;;
